createdAt,value
2023-01-17T00:04:24.669Z,2.7
2023-01-17T00:09:46.755Z,2.7
2023-01-17T00:15:16.780Z,2.6
2023-01-17T00:21:13.773Z,2.6
2023-01-17T00:26:32.066Z,2.6
2023-01-17T00:32:20.319Z,2.8
2023-01-17T00:37:59.484Z,2.8
2023-01-17T00:43:20.317Z,2.8
2023-01-17T00:48:59.083Z,2.5
2023-01-17T00:54:15.361Z,2.5
2023-01-17T00:59:50.281Z,2.5
2023-01-17T01:05:45.605Z,2.3
2023-01-17T01:11:05.515Z,2.1
2023-01-17T01:16:30.179Z,2.3
2023-01-17T01:22:03.675Z,2.2
2023-01-17T01:27:45.210Z,2.4
2023-01-17T01:33:13.709Z,2.4
2023-01-17T01:39:03.640Z,2.5
2023-01-17T01:44:37.139Z,2.6
2023-01-17T01:50:00.317Z,2.5
2023-01-17T01:55:44.642Z,2.3
2023-01-17T02:01:06.863Z,2.1
2023-01-17T02:06:44.525Z,2.1
2023-01-17T02:12:18.029Z,2.1
2023-01-17T02:17:55.793Z,1.9
2023-01-17T02:23:36.028Z,2
2023-01-17T02:28:47.137Z,2.1
2023-01-17T02:34:39.162Z,2
2023-01-17T02:40:00.572Z,2
2023-01-17T02:45:45.928Z,1.9
2023-01-17T02:51:02.980Z,1.9
2023-01-17T02:57:01.948Z,1.8
2023-01-17T03:02:18.378Z,1.7
2023-01-17T03:07:59.012Z,1.5
2023-01-17T03:13:36.240Z,1.4
2023-01-17T03:18:50.155Z,1.3
2023-01-17T03:24:27.457Z,1.2
2023-01-17T03:29:57.413Z,1.1
2023-01-17T03:35:38.140Z,1
2023-01-17T03:41:20.336Z,0.9
2023-01-17T03:46:54.779Z,1
2023-01-17T03:52:11.894Z,1
2023-01-17T03:58:04.019Z,1.1
2023-01-17T04:03:31.449Z,1
2023-01-17T04:09:01.367Z,1
2023-01-17T04:14:37.109Z,0.6
2023-01-17T04:20:20.049Z,0.3
2023-01-17T04:25:46.226Z,0.1
2023-01-17T04:31:13.431Z,0.1
2023-01-17T04:36:48.948Z,0.1
2023-01-17T04:42:14.101Z,0
2023-01-17T04:47:53.073Z,0
2023-01-17T04:53:27.108Z,0.1
2023-01-17T04:59:06.268Z,0
2023-01-17T05:04:46.581Z,0
2023-01-17T05:10:04.041Z,0
2023-01-17T05:15:32.199Z,0.1
2023-01-17T05:21:18.812Z,0.1
2023-01-17T05:26:36.591Z,0.1
2023-01-17T05:32:09.115Z,0.4
2023-01-17T05:37:42.426Z,0.3
2023-01-17T05:43:29.579Z,0.3
2023-01-17T05:49:01.933Z,0.3
2023-01-17T05:54:41.129Z,0.4
2023-01-17T06:00:02.585Z,0.2
2023-01-17T06:05:39.683Z,0.1
2023-01-17T06:11:24.346Z,0.1
2023-01-17T06:16:51.734Z,0.1
2023-01-17T06:22:12.509Z,0.1
2023-01-17T06:27:47.022Z,0.1
2023-01-17T06:33:28.502Z,0.2
2023-01-17T06:38:57.101Z,0.4
2023-01-17T06:44:31.776Z,0.5
2023-01-17T06:50:08.131Z,0.5
2023-01-17T06:55:47.742Z,0.5
2023-01-17T07:01:20.695Z,0.6
2023-01-17T07:06:42.623Z,0.7
2023-01-17T07:12:09.783Z,0.7
2023-01-17T07:17:44.571Z,0.8
2023-01-17T07:23:16.527Z,0.7
2023-01-17T07:28:52.145Z,0.6
2023-01-17T07:34:41.310Z,0.6
2023-01-17T07:40:16.607Z,0.7
2023-01-17T07:45:50.889Z,0.7
2023-01-17T07:51:07.015Z,0.7
2023-01-17T07:56:33.266Z,0.7
2023-01-17T08:02:15.541Z,0.7
2023-01-17T08:07:43.513Z,0.7
2023-01-17T08:13:35.428Z,0.8
2023-01-17T08:19:13.764Z,0.8
2023-01-17T08:24:28.254Z,0.8
2023-01-17T08:29:59.015Z,0.9
2023-01-17T08:35:27.700Z,0.9
2023-01-17T08:41:01.715Z,1
2023-01-17T08:46:59.523Z,1
2023-01-17T08:52:19.127Z,1.1
2023-01-17T08:57:41.095Z,1
2023-01-17T09:03:17.163Z,1.1
2023-01-17T09:08:46.443Z,1.2
2023-01-17T09:14:20.134Z,1.3
2023-01-17T09:20:14.514Z,1.2
2023-01-17T09:25:29.557Z,1.1
2023-01-17T09:31:02.293Z,1.1
2023-01-17T09:36:46.185Z,1.2
2023-01-17T09:42:19.190Z,1.3
2023-01-17T09:47:43.899Z,1.3
2023-01-17T09:53:37.967Z,1.2
2023-01-17T09:58:53.593Z,1.3
2023-01-17T10:04:43.410Z,1.3
2023-01-17T10:10:06.616Z,1.3
2023-01-17T10:15:31.921Z,1.5
2023-01-17T10:21:19.148Z,1.5
2023-01-17T10:26:50.547Z,1.6
2023-01-17T10:32:20.063Z,1.5
2023-01-17T10:38:03.074Z,1.4
2023-01-17T10:43:26.024Z,1.3
2023-01-17T10:49:01.076Z,1.3
2023-01-17T10:54:41.992Z,1.1
2023-01-17T11:00:03.014Z,1.1
2023-01-17T11:05:33.352Z,1.1
2023-01-17T11:11:03.120Z,1
2023-01-17T11:22:18.855Z,0.9
2023-01-17T11:27:49.529Z,1
2023-01-17T11:33:20.990Z,0.9
2023-01-17T11:38:51.041Z,0.8
2023-01-17T11:44:43.119Z,0.8
2023-01-17T11:50:09.240Z,0.8
2023-01-17T11:55:43.333Z,0.8
2023-01-17T12:01:11.865Z,0.7
2023-01-17T12:06:56.339Z,0.6
2023-01-17T12:12:15.386Z,0.6
2023-01-17T12:17:42.084Z,0.5
2023-01-17T12:23:14.443Z,0.5
2023-01-17T12:28:51.614Z,0.5
2023-01-17T12:34:48.634Z,0.5
2023-01-17T13:58:13.154Z,0.6
2023-01-17T14:03:56.238Z,0.5
2023-01-17T14:09:06.717Z,0.5
2023-01-17T14:14:44.104Z,0.5
2023-01-17T14:20:35.735Z,0.5
2023-01-17T14:25:51.427Z,0.5
2023-01-17T14:31:20.615Z,0.6
2023-01-17T14:37:11.235Z,0.7
2023-01-17T14:42:50.903Z,0.7
2023-01-17T14:53:56.208Z,0.7
2023-01-17T14:59:04.260Z,0.6
2023-01-17T15:05:01.220Z,0.5
2023-01-17T15:10:15.530Z,0.4
2023-01-17T15:15:49.639Z,0.4
2023-01-17T15:21:18.336Z,0.4
2023-01-17T15:26:55.523Z,0.4
2023-01-17T15:32:28.303Z,0.5
2023-01-17T15:38:22.806Z,0.4
2023-01-17T15:43:40.960Z,0.4
2023-01-17T15:49:20.743Z,0.5
2023-01-17T15:54:44.552Z,0.5
2023-01-17T16:00:35.541Z,0.5
2023-01-17T16:06:05.210Z,0.4
2023-01-17T16:11:24.509Z,0.4
2023-01-17T16:17:16.086Z,0.4
2023-01-17T16:22:24.435Z,0.3
2023-01-17T16:28:01.990Z,0.4
2023-01-17T16:33:44.355Z,0.4
2023-01-17T16:39:25.914Z,0.3
2023-01-17T16:44:44.123Z,0.3
2023-01-17T16:50:30.668Z,0.4
2023-01-17T16:55:49.907Z,0.4
2023-01-17T17:01:32.141Z,0.3
2023-01-17T17:07:17.557Z,0.4
2023-01-17T17:12:26.647Z,0.3
2023-01-17T17:18:24.664Z,0.4
2023-01-17T17:23:43.815Z,0.4
2023-01-17T17:29:21.534Z,0.3
2023-01-17T17:34:54.979Z,0.4
2023-01-17T17:40:22.754Z,0.4
2023-01-17T17:45:47.157Z,0.4
2023-01-17T17:51:17.154Z,0.4
2023-01-17T17:56:55.371Z,0.4
2023-01-17T18:02:34.549Z,0.4
2023-01-17T18:08:11.235Z,0.4
2023-01-17T18:13:28.775Z,0.4
2023-01-17T18:19:04.746Z,0.4
2023-01-17T18:24:47.820Z,0.4
2023-01-17T18:30:20.967Z,0.4
2023-01-17T18:36:06.410Z,0.4
2023-01-17T18:41:18.888Z,0.4
2023-01-17T18:47:05.027Z,0.3
2023-01-17T18:52:22.355Z,0.3
2023-01-17T18:57:54.138Z,0.4
2023-01-17T19:03:47.311Z,0.4
2023-01-17T19:09:15.854Z,0.4
2023-01-17T19:14:42.345Z,0.4
2023-01-17T19:20:29.967Z,0.4
2023-01-17T19:26:05.885Z,0.4
2023-01-17T19:31:34.501Z,0.4
2023-01-17T19:37:12.425Z,0.4
2023-01-17T19:42:36.294Z,0.4
2023-01-17T19:47:58.587Z,0.5
2023-01-17T19:53:52.927Z,0.4
2023-01-17T19:59:23.206Z,0.4
2023-01-17T20:04:42.230Z,0.4
2023-01-17T20:10:16.671Z,0.3
2023-01-17T20:15:38.930Z,0.3
2023-01-17T20:21:17.072Z,0.3
2023-01-17T20:26:57.709Z,0.3
2023-01-17T20:32:37.946Z,0.4
2023-01-17T20:37:57.740Z,0.4
2023-01-17T20:43:49.347Z,0.4
2023-01-17T20:49:00.939Z,0.4
2023-01-17T20:54:42.576Z,0.4
2023-01-17T21:00:24.266Z,0.5
2023-01-17T21:05:58.701Z,0.5
2023-01-17T21:11:25.409Z,0.4
2023-01-17T21:16:47.491Z,0.4
2023-01-17T21:22:34.011Z,0.3
2023-01-17T21:28:07.455Z,0.3
2023-01-17T21:33:28.113Z,0.4
2023-01-17T21:39:15.013Z,0.3
2023-01-17T21:44:36.761Z,0.4
2023-01-17T21:50:06.304Z,0.5
2023-01-17T21:56:00.435Z,0.5
2023-01-17T22:01:29.525Z,0.4
2023-01-17T22:06:55.337Z,0
2023-01-17T22:12:25.254Z,0
2023-01-17T22:18:14.288Z,0
2023-01-17T22:23:41.143Z,0.1
2023-01-17T22:29:12.687Z,0.3
2023-01-17T22:34:48.527Z,0.3
2023-01-17T22:40:13.754Z,0.4
2023-01-17T22:45:41.365Z,0.3
2023-01-17T22:51:30.613Z,0.4
2023-01-17T22:57:05.028Z,0.4
2023-01-17T23:02:34.315Z,0.3
2023-01-17T23:08:14.952Z,0.2
2023-01-17T23:13:37.473Z,0.4
2023-01-17T23:19:24.310Z,0.5
2023-01-17T23:24:53.112Z,0.6
2023-01-17T23:30:29.222Z,0.7
2023-01-17T23:35:42.044Z,0.7
2023-01-17T23:41:25.519Z,0.7
2023-01-17T23:47:08.118Z,0.8
2023-01-17T23:52:34.453Z,0.8
2023-01-17T23:58:16.580Z,0.7
